sensor_id;sensor_type;location;lat;lon;timestamp;P1;durP1;ratioP1;P2;durP2;ratioP2
4794;SDS011;2411;47.060;15.064;2023-11-21T00:01:33;1.10;;;1.10;;
4794;SDS011;2411;47.060;15.064;2023-11-21T00:04:00;1.40;;;1.30;;
4794;SDS011;2411;47.060;15.064;2023-11-21T00:06:28;1.40;;;1.30;;
4794;SDS011;2411;47.060;15.064;2023-11-21T00:08:57;2.93;;;1.47;;
4794;SDS011;2411;47.060;15.064;2023-11-21T00:11:24;5.37;;;1.70;;
4794;SDS011;2411;47.060;15.064;2023-11-21T00:13:54;1.47;;;1.20;;
4794;SDS011;2411;47.060;15.064;2023-11-21T00:16:21;1.97;;;1.13;;
4794;SDS011;2411;47.060;15.064;2023-11-21T00:18:50;2.40;;;1.40;;
4794;SDS011;2411;47.060;15.064;2023-11-21T00:21:17;1.00;;;1.00;;
4794;SDS011;2411;47.060;15.064;2023-11-21T00:23:45;1.00;;;1.00;;
4794;SDS011;2411;47.060;15.064;2023-11-21T00:26:12;1.13;;;1.10;;
4794;SDS011;2411;47.060;15.064;2023-11-21T00:28:41;0.97;;;0.97;;
4794;SDS011;2411;47.060;15.064;2023-11-21T00:31:08;1.20;;;1.10;;
4794;SDS011;2411;47.060;15.064;2023-11-21T00:33:35;1.10;;;1.00;;
4794;SDS011;2411;47.060;15.064;2023-11-21T00:36:03;1.23;;;1.13;;
4794;SDS011;2411;47.060;15.064;2023-11-21T00:38:36;1.10;;;1.10;;
4794;SDS011;2411;47.060;15.064;2023-11-21T00:41:06;0.70;;;0.70;;
4794;SDS011;2411;47.060;15.064;2023-11-21T00:43:34;1.73;;;1.10;;
4794;SDS011;2411;47.060;15.064;2023-11-21T00:46:05;1.00;;;1.00;;
4794;SDS011;2411;47.060;15.064;2023-11-21T00:48:35;1.93;;;1.23;;
4794;SDS011;2411;47.060;15.064;2023-11-21T00:51:03;1.00;;;1.00;;
4794;SDS011;2411;47.060;15.064;2023-11-21T00:53:32;1.00;;;1.00;;
4794;SDS011;2411;47.060;15.064;2023-11-21T00:56:00;1.40;;;1.00;;
4794;SDS011;2411;47.060;15.064;2023-11-21T00:58:27;1.00;;;1.00;;
4794;SDS011;2411;47.060;15.064;2023-11-21T01:00:55;1.07;;;0.97;;
4794;SDS011;2411;47.060;15.064;2023-11-21T01:03:22;0.93;;;0.83;;
4794;SDS011;2411;47.060;15.064;2023-11-21T01:05:50;0.90;;;0.90;;
4794;SDS011;2411;47.060;15.064;2023-11-21T01:08:17;0.73;;;0.73;;
4794;SDS011;2411;47.060;15.064;2023-11-21T01:10:44;0.80;;;0.80;;
4794;SDS011;2411;47.060;15.064;2023-11-21T01:13:12;2.00;;;0.80;;
4794;SDS011;2411;47.060;15.064;2023-11-21T01:15:42;2.40;;;1.00;;
4794;SDS011;2411;47.060;15.064;2023-11-21T01:18:09;0.87;;;0.87;;
4794;SDS011;2411;47.060;15.064;2023-11-21T01:20:36;1.00;;;0.87;;
4794;SDS011;2411;47.060;15.064;2023-11-21T01:23:04;1.20;;;1.03;;
4794;SDS011;2411;47.060;15.064;2023-11-21T01:25:31;0.87;;;0.77;;
4794;SDS011;2411;47.060;15.064;2023-11-21T01:27:59;0.70;;;0.70;;
4794;SDS011;2411;47.060;15.064;2023-11-21T01:30:26;1.47;;;1.37;;
4794;SDS011;2411;47.060;15.064;2023-11-21T01:32:53;3.50;;;1.87;;
4794;SDS011;2411;47.060;15.064;2023-11-21T01:35:21;1.77;;;1.67;;
4794;SDS011;2411;47.060;15.064;2023-11-21T01:37:48;1.30;;;1.20;;
4794;SDS011;2411;47.060;15.064;2023-11-21T01:40:15;1.70;;;1.30;;
4794;SDS011;2411;47.060;15.064;2023-11-21T01:42:43;1.37;;;1.27;;
4794;SDS011;2411;47.060;15.064;2023-11-21T01:45:10;2.20;;;1.00;;
4794;SDS011;2411;47.060;15.064;2023-11-21T01:47:40;1.50;;;1.40;;
4794;SDS011;2411;47.060;15.064;2023-11-21T01:50:09;1.20;;;1.20;;
4794;SDS011;2411;47.060;15.064;2023-11-21T01:52:41;1.70;;;1.60;;
4794;SDS011;2411;47.060;15.064;2023-11-21T01:55:11;1.87;;;1.77;;
4794;SDS011;2411;47.060;15.064;2023-11-21T01:57:53;4.77;;;1.90;;
4794;SDS011;2411;47.060;15.064;2023-11-21T02:00:21;1.57;;;1.47;;
4794;SDS011;2411;47.060;15.064;2023-11-21T02:02:50;3.23;;;1.40;;
4794;SDS011;2411;47.060;15.064;2023-11-21T02:05:18;5.07;;;1.20;;
4794;SDS011;2411;47.060;15.064;2023-11-21T02:07:48;1.17;;;1.10;;
4794;SDS011;2411;47.060;15.064;2023-11-21T02:10:15;3.53;;;1.23;;
4794;SDS011;2411;47.060;15.064;2023-11-21T02:12:43;3.90;;;1.17;;
4794;SDS011;2411;47.060;15.064;2023-11-21T02:15:14;1.40;;;1.30;;
4794;SDS011;2411;47.060;15.064;2023-11-21T02:17:42;2.83;;;1.60;;
4794;SDS011;2411;47.060;15.064;2023-11-21T02:20:14;1.50;;;1.33;;
4794;SDS011;2411;47.060;15.064;2023-11-21T02:22:42;1.93;;;1.83;;
4794;SDS011;2411;47.060;15.064;2023-11-21T02:25:09;1.67;;;1.57;;
4794;SDS011;2411;47.060;15.064;2023-11-21T02:27:37;1.70;;;1.60;;
4794;SDS011;2411;47.060;15.064;2023-11-21T02:30:05;1.20;;;1.10;;
4794;SDS011;2411;47.060;15.064;2023-11-21T02:32:34;2.63;;;1.00;;
4794;SDS011;2411;47.060;15.064;2023-11-21T02:35:14;1.40;;;1.30;;
4794;SDS011;2411;47.060;15.064;2023-11-21T02:37:42;1.77;;;1.50;;
4794;SDS011;2411;47.060;15.064;2023-11-21T02:40:09;1.13;;;1.03;;
4794;SDS011;2411;47.060;15.064;2023-11-21T02:42:39;1.17;;;1.07;;
4794;SDS011;2411;47.060;15.064;2023-11-21T02:45:07;1.20;;;1.13;;
4794;SDS011;2411;47.060;15.064;2023-11-21T02:47:35;1.37;;;0.70;;
4794;SDS011;2411;47.060;15.064;2023-11-21T02:50:02;0.80;;;0.80;;
4794;SDS011;2411;47.060;15.064;2023-11-21T02:52:30;0.80;;;0.80;;
4794;SDS011;2411;47.060;15.064;2023-11-21T02:55:00;0.80;;;0.80;;
4794;SDS011;2411;47.060;15.064;2023-11-21T02:57:28;1.17;;;1.07;;
4794;SDS011;2411;47.060;15.064;2023-11-21T02:59:55;1.00;;;1.00;;
4794;SDS011;2411;47.060;15.064;2023-11-21T03:02:22;0.70;;;0.70;;
4794;SDS011;2411;47.060;15.064;2023-11-21T03:04:50;0.90;;;0.90;;
4794;SDS011;2411;47.060;15.064;2023-11-21T03:07:17;1.13;;;1.03;;
4794;SDS011;2411;47.060;15.064;2023-11-21T03:09:48;1.37;;;1.10;;
4794;SDS011;2411;47.060;15.064;2023-11-21T03:12:15;1.63;;;1.30;;
4794;SDS011;2411;47.060;15.064;2023-11-21T03:14:43;2.53;;;1.80;;
4794;SDS011;2411;47.060;15.064;2023-11-21T03:17:10;2.30;;;1.83;;
4794;SDS011;2411;47.060;15.064;2023-11-21T03:19:38;1.67;;;1.47;;
4794;SDS011;2411;47.060;15.064;2023-11-21T03:22:05;1.73;;;1.33;;
4794;SDS011;2411;47.060;15.064;2023-11-21T03:24:32;2.10;;;1.50;;
4794;SDS011;2411;47.060;15.064;2023-11-21T03:27:00;8.83;;;1.27;;
4794;SDS011;2411;47.060;15.064;2023-11-21T03:29:27;1.50;;;1.40;;
4794;SDS011;2411;47.060;15.064;2023-11-21T03:31:54;1.40;;;1.30;;
4794;SDS011;2411;47.060;15.064;2023-11-21T03:34:23;1.40;;;1.30;;
4794;SDS011;2411;47.060;15.064;2023-11-21T03:36:55;1.30;;;1.20;;
4794;SDS011;2411;47.060;15.064;2023-11-21T03:39:22;1.37;;;1.10;;
4794;SDS011;2411;47.060;15.064;2023-11-21T03:41:50;1.37;;;1.27;;
4794;SDS011;2411;47.060;15.064;2023-11-21T03:44:18;2.20;;;1.67;;
4794;SDS011;2411;47.060;15.064;2023-11-21T03:46:45;1.60;;;1.50;;
4794;SDS011;2411;47.060;15.064;2023-11-21T03:49:13;1.37;;;1.27;;
4794;SDS011;2411;47.060;15.064;2023-11-21T03:51:40;1.13;;;1.03;;
4794;SDS011;2411;47.060;15.064;2023-11-21T03:54:07;0.80;;;0.80;;
4794;SDS011;2411;47.060;15.064;2023-11-21T03:56:35;1.00;;;1.00;;
4794;SDS011;2411;47.060;15.064;2023-11-21T03:59:02;1.00;;;0.90;;
4794;SDS011;2411;47.060;15.064;2023-11-21T04:01:30;1.07;;;1.03;;
4794;SDS011;2411;47.060;15.064;2023-11-21T04:03:57;1.10;;;1.10;;
4794;SDS011;2411;47.060;15.064;2023-11-21T04:06:25;1.23;;;0.97;;
4794;SDS011;2411;47.060;15.064;2023-11-21T04:08:52;0.70;;;0.70;;
4794;SDS011;2411;47.060;15.064;2023-11-21T04:11:19;1.77;;;1.10;;
4794;SDS011;2411;47.060;15.064;2023-11-21T04:13:47;0.80;;;0.80;;
4794;SDS011;2411;47.060;15.064;2023-11-21T04:16:14;1.03;;;1.00;;
4794;SDS011;2411;47.060;15.064;2023-11-21T04:18:42;0.83;;;0.83;;
4794;SDS011;2411;47.060;15.064;2023-11-21T04:21:09;0.83;;;0.83;;
4794;SDS011;2411;47.060;15.064;2023-11-21T04:23:36;1.13;;;1.10;;
4794;SDS011;2411;47.060;15.064;2023-11-21T04:26:03;0.87;;;0.87;;
4794;SDS011;2411;47.060;15.064;2023-11-21T04:28:31;1.03;;;1.00;;
4794;SDS011;2411;47.060;15.064;2023-11-21T04:30:58;0.90;;;0.90;;
4794;SDS011;2411;47.060;15.064;2023-11-21T04:33:26;0.93;;;0.90;;
4794;SDS011;2411;47.060;15.064;2023-11-21T04:35:53;1.23;;;1.13;;
4794;SDS011;2411;47.060;15.064;2023-11-21T04:38:20;0.80;;;0.80;;
4794;SDS011;2411;47.060;15.064;2023-11-21T04:40:47;0.80;;;0.80;;
4794;SDS011;2411;47.060;15.064;2023-11-21T04:43:15;1.93;;;1.20;;
4794;SDS011;2411;47.060;15.064;2023-11-21T04:45:42;0.80;;;0.80;;
4794;SDS011;2411;47.060;15.064;2023-11-21T04:48:09;0.90;;;0.90;;
4794;SDS011;2411;47.060;15.064;2023-11-21T04:50:37;1.03;;;1.03;;
4794;SDS011;2411;47.060;15.064;2023-11-21T04:53:05;3.63;;;1.20;;
4794;SDS011;2411;47.060;15.064;2023-11-21T04:55:32;1.20;;;1.10;;
4794;SDS011;2411;47.060;15.064;2023-11-21T04:58:00;1.67;;;1.20;;
4794;SDS011;2411;47.060;15.064;2023-11-21T05:00:27;0.87;;;0.87;;
4794;SDS011;2411;47.060;15.064;2023-11-21T05:02:54;1.20;;;1.10;;
4794;SDS011;2411;47.060;15.064;2023-11-21T05:05:22;1.33;;;1.13;;
4794;SDS011;2411;47.060;15.064;2023-11-21T05:07:50;1.17;;;1.17;;
4794;SDS011;2411;47.060;15.064;2023-11-21T05:10:20;1.60;;;1.07;;
4794;SDS011;2411;47.060;15.064;2023-11-21T05:12:47;1.20;;;1.20;;
4794;SDS011;2411;47.060;15.064;2023-11-21T05:15:16;0.93;;;0.93;;
4794;SDS011;2411;47.060;15.064;2023-11-21T05:17:44;0.90;;;0.90;;
4794;SDS011;2411;47.060;15.064;2023-11-21T05:20:13;0.90;;;0.90;;
4794;SDS011;2411;47.060;15.064;2023-11-21T05:22:45;3.07;;;1.00;;
4794;SDS011;2411;47.060;15.064;2023-11-21T05:25:13;2.43;;;1.20;;
4794;SDS011;2411;47.060;15.064;2023-11-21T05:27:40;1.17;;;1.13;;
4794;SDS011;2411;47.060;15.064;2023-11-21T05:30:08;1.83;;;1.10;;
4794;SDS011;2411;47.060;15.064;2023-11-21T05:32:39;1.23;;;1.07;;
4794;SDS011;2411;47.060;15.064;2023-11-21T05:35:11;1.53;;;1.20;;
4794;SDS011;2411;47.060;15.064;2023-11-21T05:37:44;1.03;;;1.03;;
4794;SDS011;2411;47.060;15.064;2023-11-21T05:40:12;1.47;;;1.20;;
4794;SDS011;2411;47.060;15.064;2023-11-21T05:42:40;1.20;;;1.10;;
4794;SDS011;2411;47.060;15.064;2023-11-21T05:45:07;1.50;;;1.40;;
4794;SDS011;2411;47.060;15.064;2023-11-21T05:47:43;1.50;;;1.40;;
4794;SDS011;2411;47.060;15.064;2023-11-21T05:50:14;1.00;;;1.00;;
4794;SDS011;2411;47.060;15.064;2023-11-21T05:52:45;1.30;;;1.30;;
4794;SDS011;2411;47.060;15.064;2023-11-21T05:55:14;2.23;;;1.37;;
4794;SDS011;2411;47.060;15.064;2023-11-21T05:57:42;1.70;;;1.60;;
4794;SDS011;2411;47.060;15.064;2023-11-21T06:00:11;1.20;;;1.10;;
4794;SDS011;2411;47.060;15.064;2023-11-21T06:02:46;1.20;;;1.20;;
4794;SDS011;2411;47.060;15.064;2023-11-21T06:05:17;1.83;;;1.33;;
4794;SDS011;2411;47.060;15.064;2023-11-21T06:07:46;1.17;;;1.13;;
4794;SDS011;2411;47.060;15.064;2023-11-21T06:10:13;1.10;;;1.10;;
4794;SDS011;2411;47.060;15.064;2023-11-21T06:12:41;1.50;;;1.40;;
4794;SDS011;2411;47.060;15.064;2023-11-21T06:15:10;1.23;;;1.23;;
4794;SDS011;2411;47.060;15.064;2023-11-21T06:17:41;1.40;;;1.30;;
4794;SDS011;2411;47.060;15.064;2023-11-21T06:20:09;1.50;;;1.40;;
4794;SDS011;2411;47.060;15.064;2023-11-21T06:22:41;1.30;;;1.30;;
4794;SDS011;2411;47.060;15.064;2023-11-21T06:25:11;1.50;;;1.40;;
4794;SDS011;2411;47.060;15.064;2023-11-21T06:27:42;2.80;;;1.50;;
4794;SDS011;2411;47.060;15.064;2023-11-21T06:30:18;1.40;;;1.30;;
4794;SDS011;2411;47.060;15.064;2023-11-21T06:32:47;4.10;;;3.80;;
4794;SDS011;2411;47.060;15.064;2023-11-21T06:35:15;6.33;;;5.73;;
4794;SDS011;2411;47.060;15.064;2023-11-21T06:37:44;1.50;;;1.40;;
4794;SDS011;2411;47.060;15.064;2023-11-21T06:40:16;1.60;;;1.50;;
4794;SDS011;2411;47.060;15.064;2023-11-21T06:42:48;2.60;;;1.47;;
4794;SDS011;2411;47.060;15.064;2023-11-21T06:45:15;2.40;;;1.40;;
4794;SDS011;2411;47.060;15.064;2023-11-21T06:47:43;1.63;;;1.50;;
4794;SDS011;2411;47.060;15.064;2023-11-21T06:50:11;1.77;;;1.67;;
4794;SDS011;2411;47.060;15.064;2023-11-21T06:52:40;2.10;;;1.90;;
4794;SDS011;2411;47.060;15.064;2023-11-21T06:55:08;1.93;;;1.83;;
4794;SDS011;2411;47.060;15.064;2023-11-21T06:57:36;1.90;;;1.80;;
4794;SDS011;2411;47.060;15.064;2023-11-21T07:00:05;2.00;;;1.83;;
4794;SDS011;2411;47.060;15.064;2023-11-21T07:02:36;2.30;;;2.20;;
4794;SDS011;2411;47.060;15.064;2023-11-21T07:05:05;2.17;;;2.00;;
4794;SDS011;2411;47.060;15.064;2023-11-21T07:07:33;5.07;;;2.43;;
4794;SDS011;2411;47.060;15.064;2023-11-21T07:10:03;3.23;;;2.50;;
4794;SDS011;2411;47.060;15.064;2023-11-21T07:12:32;2.83;;;2.50;;
4794;SDS011;2411;47.060;15.064;2023-11-21T07:15:01;2.87;;;2.67;;
4794;SDS011;2411;47.060;15.064;2023-11-21T07:17:29;4.30;;;3.90;;
4794;SDS011;2411;47.060;15.064;2023-11-21T07:19:58;4.60;;;4.20;;
4794;SDS011;2411;47.060;15.064;2023-11-21T07:22:25;6.00;;;4.80;;
4794;SDS011;2411;47.060;15.064;2023-11-21T07:24:53;5.77;;;4.00;;
4794;SDS011;2411;47.060;15.064;2023-11-21T07:27:20;4.87;;;4.37;;
4794;SDS011;2411;47.060;15.064;2023-11-21T07:29:47;4.47;;;4.10;;
4794;SDS011;2411;47.060;15.064;2023-11-21T07:32:15;7.93;;;4.87;;
4794;SDS011;2411;47.060;15.064;2023-11-21T07:34:42;5.43;;;4.93;;
4794;SDS011;2411;47.060;15.064;2023-11-21T07:37:10;4.63;;;4.23;;
4794;SDS011;2411;47.060;15.064;2023-11-21T07:39:37;5.47;;;4.97;;
4794;SDS011;2411;47.060;15.064;2023-11-21T07:42:09;6.67;;;5.97;;
4794;SDS011;2411;47.060;15.064;2023-11-21T07:44:37;9.20;;;6.50;;
4794;SDS011;2411;47.060;15.064;2023-11-21T07:47:05;8.90;;;7.13;;
4794;SDS011;2411;47.060;15.064;2023-11-21T07:49:32;6.00;;;5.43;;
4794;SDS011;2411;47.060;15.064;2023-11-21T07:52:00;6.70;;;6.10;;
4794;SDS011;2411;47.060;15.064;2023-11-21T07:54:27;8.00;;;6.60;;
4794;SDS011;2411;47.060;15.064;2023-11-21T07:56:54;7.47;;;5.83;;
4794;SDS011;2411;47.060;15.064;2023-11-21T07:59:22;9.10;;;5.50;;
4794;SDS011;2411;47.060;15.064;2023-11-21T08:01:49;7.10;;;5.20;;
4794;SDS011;2411;47.060;15.064;2023-11-21T08:04:16;6.70;;;5.73;;
4794;SDS011;2411;47.060;15.064;2023-11-21T08:06:44;7.07;;;5.37;;
4794;SDS011;2411;47.060;15.064;2023-11-21T08:09:11;6.23;;;5.60;;
4794;SDS011;2411;47.060;15.064;2023-11-21T08:11:39;3.90;;;3.60;;
4794;SDS011;2411;47.060;15.064;2023-11-21T08:14:06;3.90;;;3.60;;
4794;SDS011;2411;47.060;15.064;2023-11-21T08:16:34;3.60;;;3.23;;
4794;SDS011;2411;47.060;15.064;2023-11-21T08:19:01;5.30;;;2.67;;
4794;SDS011;2411;47.060;15.064;2023-11-21T08:21:29;2.73;;;2.53;;
4794;SDS011;2411;47.060;15.064;2023-11-21T08:23:58;6.87;;;2.47;;
4794;SDS011;2411;47.060;15.064;2023-11-21T08:26:26;4.10;;;2.20;;
4794;SDS011;2411;47.060;15.064;2023-11-21T08:28:54;2.60;;;2.40;;
4794;SDS011;2411;47.060;15.064;2023-11-21T08:31:24;2.80;;;2.17;;
4794;SDS011;2411;47.060;15.064;2023-11-21T08:33:52;2.00;;;1.90;;
4794;SDS011;2411;47.060;15.064;2023-11-21T08:36:22;2.67;;;2.47;;
4794;SDS011;2411;47.060;15.064;2023-11-21T08:38:51;2.50;;;2.30;;
4794;SDS011;2411;47.060;15.064;2023-11-21T08:41:19;2.47;;;2.37;;
4794;SDS011;2411;47.060;15.064;2023-11-21T08:43:49;9.00;;;3.93;;
4794;SDS011;2411;47.060;15.064;2023-11-21T08:46:18;5.10;;;4.60;;
4794;SDS011;2411;47.060;15.064;2023-11-21T08:48:46;5.20;;;4.80;;
4794;SDS011;2411;47.060;15.064;2023-11-21T08:51:14;8.23;;;4.67;;
4794;SDS011;2411;47.060;15.064;2023-11-21T08:53:41;5.30;;;4.50;;
4794;SDS011;2411;47.060;15.064;2023-11-21T08:56:12;4.67;;;4.27;;
4794;SDS011;2411;47.060;15.064;2023-11-21T08:58:41;6.20;;;4.87;;
4794;SDS011;2411;47.060;15.064;2023-11-21T09:01:08;4.67;;;4.27;;
4794;SDS011;2411;47.060;15.064;2023-11-21T09:03:36;4.27;;;3.87;;
4794;SDS011;2411;47.060;15.064;2023-11-21T09:06:04;4.37;;;3.83;;
4794;SDS011;2411;47.060;15.064;2023-11-21T09:08:32;4.70;;;4.30;;
4794;SDS011;2411;47.060;15.064;2023-11-21T09:10:59;5.83;;;3.90;;
4794;SDS011;2411;47.060;15.064;2023-11-21T09:13:26;4.30;;;3.90;;
4794;SDS011;2411;47.060;15.064;2023-11-21T09:15:54;4.17;;;3.77;;
4794;SDS011;2411;47.060;15.064;2023-11-21T09:18:21;4.33;;;3.80;;
4794;SDS011;2411;47.060;15.064;2023-11-21T09:20:49;4.53;;;4.03;;
4794;SDS011;2411;47.060;15.064;2023-11-21T09:23:16;4.60;;;3.83;;
4794;SDS011;2411;47.060;15.064;2023-11-21T09:25:44;4.80;;;3.50;;
4794;SDS011;2411;47.060;15.064;2023-11-21T09:28:13;10.10;;;4.07;;
4794;SDS011;2411;47.060;15.064;2023-11-21T09:30:40;3.73;;;3.20;;
4794;SDS011;2411;47.060;15.064;2023-11-21T09:33:08;5.27;;;3.70;;
4794;SDS011;2411;47.060;15.064;2023-11-21T09:35:38;4.27;;;3.90;;
4794;SDS011;2411;47.060;15.064;2023-11-21T09:38:05;5.87;;;3.70;;
4794;SDS011;2411;47.060;15.064;2023-11-21T09:40:37;10.10;;;3.57;;
4794;SDS011;2411;47.060;15.064;2023-11-21T09:43:06;7.53;;;3.80;;
4794;SDS011;2411;47.060;15.064;2023-11-21T09:45:46;4.97;;;3.53;;
4794;SDS011;2411;47.060;15.064;2023-11-21T09:48:18;5.87;;;4.00;;
4794;SDS011;2411;47.060;15.064;2023-11-21T09:50:47;9.67;;;4.50;;
4794;SDS011;2411;47.060;15.064;2023-11-21T09:53:19;3.57;;;3.27;;
4794;SDS011;2411;47.060;15.064;2023-11-21T09:55:49;4.33;;;3.90;;
4794;SDS011;2411;47.060;15.064;2023-11-21T09:58:19;8.37;;;3.40;;
4794;SDS011;2411;47.060;15.064;2023-11-21T10:00:52;3.70;;;3.40;;
4794;SDS011;2411;47.060;15.064;2023-11-21T10:03:20;3.63;;;2.93;;
4794;SDS011;2411;47.060;15.064;2023-11-21T10:05:48;5.03;;;3.67;;
4794;SDS011;2411;47.060;15.064;2023-11-21T10:08:19;4.83;;;3.37;;
4794;SDS011;2411;47.060;15.064;2023-11-21T10:10:49;7.60;;;4.07;;
4794;SDS011;2411;47.060;15.064;2023-11-21T10:13:20;3.63;;;3.00;;
4794;SDS011;2411;47.060;15.064;2023-11-21T10:15:51;5.03;;;3.93;;
4794;SDS011;2411;47.060;15.064;2023-11-21T10:18:19;3.83;;;3.40;;
4794;SDS011;2411;47.060;15.064;2023-11-21T10:20:49;5.30;;;3.90;;
4794;SDS011;2411;47.060;15.064;2023-11-21T10:23:21;6.27;;;3.43;;
4794;SDS011;2411;47.060;15.064;2023-11-21T10:25:51;5.37;;;3.93;;
4794;SDS011;2411;47.060;15.064;2023-11-21T10:28:19;4.20;;;3.37;;
4794;SDS011;2411;47.060;15.064;2023-11-21T10:30:48;4.63;;;3.70;;
4794;SDS011;2411;47.060;15.064;2023-11-21T10:33:17;4.00;;;3.47;;
4794;SDS011;2411;47.060;15.064;2023-11-21T10:35:51;3.70;;;3.40;;
4794;SDS011;2411;47.060;15.064;2023-11-21T10:38:21;5.23;;;3.77;;
4794;SDS011;2411;47.060;15.064;2023-11-21T10:40:51;10.07;;;3.57;;
4794;SDS011;2411;47.060;15.064;2023-11-21T10:43:19;6.30;;;3.77;;
4794;SDS011;2411;47.060;15.064;2023-11-21T10:45:47;4.90;;;3.60;;
4794;SDS011;2411;47.060;15.064;2023-11-21T10:48:14;6.87;;;3.90;;
4794;SDS011;2411;47.060;15.064;2023-11-21T10:50:46;3.90;;;3.20;;
4794;SDS011;2411;47.060;15.064;2023-11-21T10:53:14;6.40;;;4.00;;
4794;SDS011;2411;47.060;15.064;2023-11-21T10:55:42;5.30;;;4.10;;
4794;SDS011;2411;47.060;15.064;2023-11-21T10:58:13;4.50;;;4.10;;
4794;SDS011;2411;47.060;15.064;2023-11-21T11:00:41;3.87;;;3.47;;
4794;SDS011;2411;47.060;15.064;2023-11-21T11:03:12;3.50;;;3.20;;
4794;SDS011;2411;47.060;15.064;2023-11-21T11:05:43;4.77;;;3.30;;
4794;SDS011;2411;47.060;15.064;2023-11-21T11:08:21;4.23;;;3.83;;
4794;SDS011;2411;47.060;15.064;2023-11-21T11:10:54;4.23;;;3.87;;
4794;SDS011;2411;47.060;15.064;2023-11-21T11:13:22;7.17;;;4.30;;
4794;SDS011;2411;47.060;15.064;2023-11-21T11:15:51;4.80;;;3.97;;
4794;SDS011;2411;47.060;15.064;2023-11-21T11:18:26;10.43;;;4.60;;
4794;SDS011;2411;47.060;15.064;2023-11-21T11:20:56;6.27;;;4.60;;
4794;SDS011;2411;47.060;15.064;2023-11-21T11:34:26;3.43;;;2.90;;
4794;SDS011;2411;47.060;15.064;2023-11-21T11:37:00;3.90;;;3.60;;
4794;SDS011;2411;47.060;15.064;2023-11-21T11:39:37;4.57;;;3.17;;
4794;SDS011;2411;47.060;15.064;2023-11-21T11:42:07;6.20;;;4.30;;
4794;SDS011;2411;47.060;15.064;2023-11-21T11:47:23;6.10;;;4.30;;
4794;SDS011;2411;47.060;15.064;2023-11-21T11:52:36;7.30;;;4.60;;
4794;SDS011;2411;47.060;15.064;2023-11-21T11:55:04;3.90;;;3.60;;
4794;SDS011;2411;47.060;15.064;2023-11-21T11:57:33;6.80;;;3.87;;
4794;SDS011;2411;47.060;15.064;2023-11-21T12:02:38;6.03;;;4.47;;
4794;SDS011;2411;47.060;15.064;2023-11-21T12:05:13;4.83;;;4.40;;
4794;SDS011;2411;47.060;15.064;2023-11-21T12:10:14;6.43;;;4.17;;
4794;SDS011;2411;47.060;15.064;2023-11-21T12:12:45;5.50;;;4.90;;
4794;SDS011;2411;47.060;15.064;2023-11-21T12:15:16;4.70;;;4.30;;
4794;SDS011;2411;47.060;15.064;2023-11-21T12:17:44;5.60;;;4.87;;
4794;SDS011;2411;47.060;15.064;2023-11-21T12:20:13;5.30;;;4.43;;
4794;SDS011;2411;47.060;15.064;2023-11-21T12:22:53;5.07;;;4.40;;
4794;SDS011;2411;47.060;15.064;2023-11-21T12:25:23;8.30;;;4.70;;
4794;SDS011;2411;47.060;15.064;2023-11-21T12:27:55;5.73;;;4.60;;
4794;SDS011;2411;47.060;15.064;2023-11-21T12:30:24;5.03;;;4.27;;
4794;SDS011;2411;47.060;15.064;2023-11-21T12:32:58;6.27;;;3.70;;
4794;SDS011;2411;47.060;15.064;2023-11-21T12:35:28;4.83;;;3.83;;
4794;SDS011;2411;47.060;15.064;2023-11-21T12:38:03;6.07;;;3.60;;
4794;SDS011;2411;47.060;15.064;2023-11-21T12:40:36;4.27;;;3.87;;
4794;SDS011;2411;47.060;15.064;2023-11-21T12:43:03;4.97;;;4.00;;
4794;SDS011;2411;47.060;15.064;2023-11-21T12:45:31;4.80;;;4.17;;
4794;SDS011;2411;47.060;15.064;2023-11-21T12:48:00;4.43;;;3.93;;
4794;SDS011;2411;47.060;15.064;2023-11-21T12:50:30;6.60;;;3.60;;
4794;SDS011;2411;47.060;15.064;2023-11-21T12:53:02;4.37;;;3.97;;
4794;SDS011;2411;47.060;15.064;2023-11-21T12:55:32;6.73;;;4.07;;
4794;SDS011;2411;47.060;15.064;2023-11-21T12:58:03;4.17;;;3.77;;
4794;SDS011;2411;47.060;15.064;2023-11-21T13:00:47;7.00;;;4.43;;
4794;SDS011;2411;47.060;15.064;2023-11-21T13:03:16;5.53;;;4.13;;
4794;SDS011;2411;47.060;15.064;2023-11-21T13:05:47;5.50;;;3.90;;
4794;SDS011;2411;47.060;15.064;2023-11-21T13:08:21;4.43;;;3.67;;
4794;SDS011;2411;47.060;15.064;2023-11-21T13:10:54;4.53;;;3.70;;
4794;SDS011;2411;47.060;15.064;2023-11-21T13:13:25;5.93;;;4.53;;
4794;SDS011;2411;47.060;15.064;2023-11-21T13:16:01;7.00;;;4.37;;
4794;SDS011;2411;47.060;15.064;2023-11-21T13:18:32;8.70;;;4.77;;
4794;SDS011;2411;47.060;15.064;2023-11-21T13:21:02;4.50;;;4.10;;
4794;SDS011;2411;47.060;15.064;2023-11-21T13:23:36;6.23;;;4.77;;
4794;SDS011;2411;47.060;15.064;2023-11-21T13:26:04;5.73;;;5.23;;
4794;SDS011;2411;47.060;15.064;2023-11-21T13:28:33;8.50;;;5.90;;
4794;SDS011;2411;47.060;15.064;2023-11-21T13:31:03;8.20;;;5.37;;
4794;SDS011;2411;47.060;15.064;2023-11-21T13:33:38;5.53;;;4.93;;
4794;SDS011;2411;47.060;15.064;2023-11-21T13:36:09;5.37;;;4.70;;
4794;SDS011;2411;47.060;15.064;2023-11-21T13:38:37;7.00;;;5.37;;
4794;SDS011;2411;47.060;15.064;2023-11-21T13:41:10;5.60;;;4.80;;
4794;SDS011;2411;47.060;15.064;2023-11-21T13:43:39;5.40;;;4.90;;
4794;SDS011;2411;47.060;15.064;2023-11-21T13:46:10;7.17;;;5.03;;
4794;SDS011;2411;47.060;15.064;2023-11-21T13:48:44;5.50;;;5.00;;
4794;SDS011;2411;47.060;15.064;2023-11-21T13:51:18;5.43;;;4.93;;
4794;SDS011;2411;47.060;15.064;2023-11-21T13:53:47;5.10;;;4.60;;
4794;SDS011;2411;47.060;15.064;2023-11-21T13:56:16;6.90;;;4.87;;
4794;SDS011;2411;47.060;15.064;2023-11-21T13:58:47;6.60;;;4.57;;
4794;SDS011;2411;47.060;15.064;2023-11-21T14:01:19;5.70;;;5.13;;
4794;SDS011;2411;47.060;15.064;2023-11-21T14:03:56;5.90;;;5.23;;
4794;SDS011;2411;47.060;15.064;2023-11-21T14:06:29;6.67;;;5.33;;
4794;SDS011;2411;47.060;15.064;2023-11-21T14:09:06;6.77;;;5.70;;
4794;SDS011;2411;47.060;15.064;2023-11-21T14:11:34;9.83;;;5.40;;
4794;SDS011;2411;47.060;15.064;2023-11-21T14:14:13;6.00;;;5.27;;
4794;SDS011;2411;47.060;15.064;2023-11-21T14:16:40;6.97;;;5.50;;
4794;SDS011;2411;47.060;15.064;2023-11-21T14:19:09;6.70;;;5.80;;
4794;SDS011;2411;47.060;15.064;2023-11-21T14:21:46;6.60;;;5.10;;
4794;SDS011;2411;47.060;15.064;2023-11-21T14:24:15;6.03;;;5.43;;
4794;SDS011;2411;47.060;15.064;2023-11-21T14:26:46;5.93;;;4.80;;
4794;SDS011;2411;47.060;15.064;2023-11-21T14:29:14;5.90;;;5.40;;
4794;SDS011;2411;47.060;15.064;2023-11-21T14:31:46;7.07;;;5.53;;
4794;SDS011;2411;47.060;15.064;2023-11-21T14:34:15;7.17;;;5.00;;
4794;SDS011;2411;47.060;15.064;2023-11-21T14:36:46;8.77;;;5.20;;
4794;SDS011;2411;47.060;15.064;2023-11-21T14:39:16;5.60;;;5.07;;
4794;SDS011;2411;47.060;15.064;2023-11-21T14:41:51;7.27;;;6.03;;
4794;SDS011;2411;47.060;15.064;2023-11-21T14:44:20;6.30;;;5.70;;
4794;SDS011;2411;47.060;15.064;2023-11-21T14:46:50;9.63;;;7.23;;
4794;SDS011;2411;47.060;15.064;2023-11-21T14:49:19;7.50;;;6.80;;
4794;SDS011;2411;47.060;15.064;2023-11-21T14:51:48;9.50;;;8.50;;
4794;SDS011;2411;47.060;15.064;2023-11-21T14:54:39;12.03;;;9.27;;
4794;SDS011;2411;47.060;15.064;2023-11-21T14:57:08;11.37;;;9.50;;
4794;SDS011;2411;47.060;15.064;2023-11-21T14:59:46;14.80;;;11.40;;
4794;SDS011;2411;47.060;15.064;2023-11-21T15:02:16;16.87;;;10.57;;
4794;SDS011;2411;47.060;15.064;2023-11-21T15:04:48;14.67;;;10.23;;
4794;SDS011;2411;47.060;15.064;2023-11-21T15:07:19;12.40;;;9.97;;
4794;SDS011;2411;47.060;15.064;2023-11-21T15:09:47;18.40;;;10.30;;
4794;SDS011;2411;47.060;15.064;2023-11-21T15:12:16;14.53;;;9.20;;
4794;SDS011;2411;47.060;15.064;2023-11-21T15:14:46;12.60;;;9.60;;
4794;SDS011;2411;47.060;15.064;2023-11-21T15:17:23;13.10;;;9.27;;
4794;SDS011;2411;47.060;15.064;2023-11-21T15:19:54;11.77;;;8.97;;
4794;SDS011;2411;47.060;15.064;2023-11-21T15:22:22;14.83;;;9.90;;
4794;SDS011;2411;47.060;15.064;2023-11-21T15:24:49;13.50;;;9.40;;
4794;SDS011;2411;47.060;15.064;2023-11-21T15:27:20;18.40;;;9.83;;
4794;SDS011;2411;47.060;15.064;2023-11-21T15:29:48;14.87;;;9.93;;
4794;SDS011;2411;47.060;15.064;2023-11-21T15:32:16;16.60;;;9.73;;
4794;SDS011;2411;47.060;15.064;2023-11-21T15:34:44;11.53;;;8.40;;